createdAt,value
2018-04-17T00:00:23.308Z,87.93
2018-04-17T00:01:23.432Z,88.31
2018-04-17T00:02:23.605Z,88.59
2018-04-17T00:03:23.800Z,88.12
2018-04-17T00:04:23.964Z,88.02
2018-04-17T00:05:24.138Z,87.93
2018-04-17T00:06:24.312Z,88.02
2018-04-17T00:07:24.500Z,88.31
2018-04-17T00:08:24.660Z,88.31
2018-04-17T00:09:24.858Z,87.74
2018-04-17T00:10:24.992Z,88.12
2018-04-17T00:11:25.134Z,88.02
2018-04-17T00:12:25.310Z,88.02
2018-04-17T00:13:25.469Z,88.50
2018-04-17T00:14:25.639Z,87.83
2018-04-17T00:15:25.828Z,88.21
2018-04-17T00:16:25.969Z,88.21
2018-04-17T00:17:26.136Z,88.21
2018-04-17T00:18:26.303Z,87.93
2018-04-17T00:19:26.480Z,88.40
2018-04-17T00:20:26.634Z,88.21
2018-04-17T00:21:26.832Z,88.02
2018-04-17T00:22:26.967Z,87.45
2018-04-17T00:23:27.162Z,87.74
2018-04-17T00:24:27.319Z,88.02
2018-04-17T00:25:27.496Z,87.93
2018-04-17T00:26:27.688Z,87.54
2018-04-17T00:27:27.872Z,87.54
2018-04-17T00:28:28.074Z,87.07
2018-04-17T00:29:28.571Z,87.26
2018-04-17T00:30:28.395Z,87.35
2018-04-17T00:31:28.550Z,87.35
2018-04-17T00:32:28.754Z,86.88
2018-04-17T00:33:28.916Z,86.59
2018-04-17T00:34:29.065Z,86.49
2018-04-17T00:35:29.242Z,86.88
2018-04-17T00:36:29.404Z,86.88
2018-04-17T00:37:29.565Z,87.40
2018-04-17T00:38:29.730Z,87.69
2018-04-17T00:39:29.941Z,87.40
2018-04-17T00:40:30.098Z,87.50
2018-04-17T00:41:30.247Z,87.40
2018-04-17T00:42:30.415Z,87.69
2018-04-17T00:43:30.582Z,88.07
2018-04-17T00:44:30.741Z,88.17
2018-04-17T00:45:30.919Z,88.07
2018-04-17T00:46:31.099Z,88.36
2018-04-17T00:47:31.253Z,88.07
2018-04-17T00:48:31.432Z,88.36
2018-04-17T00:49:31.649Z,88.17
2018-04-17T00:50:31.788Z,88.45
2018-04-17T00:51:31.986Z,88.26
2018-04-17T00:52:32.187Z,88.17
2018-04-17T00:53:32.309Z,88.07
2018-04-17T00:54:32.532Z,88.36
2018-04-17T00:55:32.646Z,88.45
2018-04-17T00:56:32.819Z,88.17
2018-04-17T00:57:32.961Z,87.88
2018-04-17T00:58:33.151Z,88.36
2018-04-17T00:59:33.303Z,88.55
2018-04-17T01:00:33.531Z,88.93
2018-04-17T01:01:33.661Z,88.07
2018-04-17T01:02:33.819Z,88.17
2018-04-17T01:03:34.001Z,88.17
2018-04-17T01:04:34.206Z,87.98
2018-04-17T01:05:34.594Z,88.26
2018-04-17T01:06:34.517Z,88.36
2018-04-17T01:07:34.659Z,88.17
2018-04-17T01:08:34.828Z,88.07
2018-04-17T01:09:35.004Z,88.17
2018-04-17T01:10:35.165Z,88.26
2018-04-17T01:11:35.347Z,88.17
2018-04-17T01:12:35.533Z,88.17
2018-04-17T01:13:35.689Z,88.17
2018-04-17T01:14:35.866Z,87.98
2018-04-17T01:15:36.031Z,88.26
2018-04-17T01:16:36.200Z,88.36
2018-04-17T01:17:36.355Z,88.64
2018-04-17T01:18:36.539Z,87.98
2018-04-17T01:19:36.745Z,88.17
2018-04-17T01:20:36.850Z,88.17
2018-04-17T01:21:37.038Z,88.07
2018-04-17T01:22:37.220Z,88.26
2018-04-17T01:23:37.393Z,88.26
2018-04-17T01:24:37.545Z,88.36
2018-04-17T01:25:37.705Z,88.17
2018-04-17T01:26:37.849Z,88.36
2018-04-17T01:27:38.038Z,88.45
2018-04-17T01:28:38.193Z,88.22
2018-04-17T01:29:38.386Z,88.74
2018-04-17T01:30:38.545Z,88.26
2018-04-17T01:31:38.708Z,88.93
2018-04-17T01:32:38.888Z,89.26
2018-04-17T01:33:39.051Z,89.31
2018-04-17T01:34:39.217Z,88.93
2018-04-17T01:35:39.395Z,88.26
2018-04-17T01:36:39.582Z,87.98
2018-04-17T01:37:39.739Z,88.07
2018-04-17T01:38:39.908Z,87.21
2018-04-17T01:39:40.073Z,87.21
2018-04-17T01:40:40.262Z,87.12
2018-04-17T01:41:40.694Z,87.50
2018-04-17T01:42:40.599Z,87.31
2018-04-17T01:43:40.790Z,87.40
2018-04-17T01:44:40.954Z,87.50
2018-04-17T01:45:41.125Z,88.22
2018-04-17T01:46:41.309Z,88.22
2018-04-17T01:47:41.463Z,88.22
2018-04-17T01:48:41.633Z,88.60
2018-04-17T01:49:41.794Z,88.79
2018-04-17T01:50:41.997Z,88.70
2018-04-17T01:51:42.133Z,88.98
2018-04-17T01:52:42.289Z,88.12
2018-04-17T01:53:42.462Z,88.98
2018-04-17T01:54:42.650Z,89.07
2018-04-17T01:55:42.799Z,89.55
2018-04-17T01:56:42.973Z,88.70
2018-04-17T01:57:43.140Z,88.60
2018-04-17T01:58:43.305Z,88.12
2018-04-17T01:59:43.530Z,88.12
2018-04-17T02:00:43.633Z,88.41
2018-04-17T02:01:43.815Z,88.12
2018-04-17T02:02:43.995Z,88.22
2018-04-17T02:03:44.156Z,88.12
2018-04-17T02:04:44.296Z,87.93
2018-04-17T02:05:44.524Z,88.89
2018-04-17T02:06:44.649Z,88.70
2018-04-17T02:07:44.805Z,89.07
2018-04-17T02:08:45.017Z,89.46
2018-04-17T02:09:45.186Z,89.36
2018-04-17T02:10:45.327Z,89.36
2018-04-17T02:11:45.521Z,89.46
2018-04-17T02:12:45.658Z,89.46
2018-04-17T02:13:45.812Z,89.36
2018-04-17T02:14:46.032Z,89.26
2018-04-17T02:15:46.178Z,89.17
2018-04-17T02:16:46.348Z,89.36
2018-04-17T02:17:46.485Z,89.46
2018-04-17T02:18:46.664Z,89.75
2018-04-17T02:19:46.820Z,89.07
2018-04-17T02:20:46.991Z,89.17
2018-04-17T02:21:47.166Z,89.65
2018-04-17T02:22:47.333Z,90.31
2018-04-17T02:23:47.521Z,90.12
2018-04-17T02:24:47.689Z,89.26
2018-04-17T02:25:47.836Z,88.98
2018-04-17T02:26:47.999Z,89.07
2018-04-17T02:27:48.188Z,89.07
2018-04-17T02:28:48.403Z,88.89
2018-04-17T02:29:48.511Z,88.89
2018-04-17T02:30:48.690Z,89.07
2018-04-17T02:31:48.884Z,89.36
2018-04-17T02:32:49.003Z,88.89
2018-04-17T02:33:49.168Z,88.98
2018-04-17T02:34:49.339Z,88.60
2018-04-17T02:35:49.511Z,88.79
2018-04-17T02:36:49.679Z,88.60
2018-04-17T02:37:49.846Z,88.89
2018-04-17T02:38:50.011Z,89.46
2018-04-17T02:39:50.183Z,89.26
2018-04-17T02:40:50.370Z,89.17
2018-04-17T02:41:50.524Z,90.50
2018-04-17T02:42:50.717Z,89.55
2018-04-17T02:43:50.888Z,89.07
2018-04-17T02:44:51.081Z,88.70
2018-04-17T02:45:51.247Z,88.79
2018-04-17T02:46:51.422Z,89.46
2018-04-17T02:47:51.581Z,89.55
2018-04-17T02:48:51.772Z,89.46
2018-04-17T02:49:51.938Z,89.46
2018-04-17T02:50:52.106Z,89.07
2018-04-17T02:51:52.285Z,88.51
2018-04-17T02:52:52.464Z,88.51
2018-04-17T02:53:52.643Z,88.31
2018-04-17T02:54:52.823Z,88.22
2018-04-17T02:55:53.007Z,88.31
2018-04-17T02:56:53.209Z,88.22
2018-04-17T02:57:53.376Z,87.93
2018-04-17T02:58:53.562Z,87.93
2018-04-17T02:59:53.728Z,87.84
2018-04-17T03:00:54.702Z,88.31
2018-04-17T03:01:54.069Z,88.75
2018-04-17T03:02:54.245Z,88.84
2018-04-17T03:03:54.440Z,89.03
2018-04-17T03:04:54.614Z,89.41
2018-04-17T03:05:54.799Z,89.51
2018-04-17T03:06:54.967Z,90.27
2018-04-17T03:07:55.145Z,90.46
2018-04-17T03:08:55.325Z,89.89
2018-04-17T03:09:55.509Z,89.89
2018-04-17T03:10:55.671Z,89.70
2018-04-17T03:11:55.855Z,89.61
2018-04-17T03:12:56.030Z,89.32
2018-04-17T03:13:56.201Z,89.89
2018-04-17T03:14:56.367Z,89.70
2018-04-17T03:15:56.545Z,89.61
2018-04-17T03:16:56.730Z,89.61
2018-04-17T03:17:56.906Z,89.41
2018-04-17T03:18:57.085Z,89.41
2018-04-17T03:19:57.268Z,89.13
2018-04-17T03:20:57.443Z,89.41
2018-04-17T03:21:57.618Z,88.93
2018-04-17T03:22:57.791Z,88.84
2018-04-17T03:24:58.140Z,89.32
2018-04-17T03:25:58.328Z,89.41
2018-04-17T03:26:58.507Z,89.61
2018-04-17T03:27:58.682Z,90.08
2018-04-17T03:28:58.861Z,89.98
2018-04-17T03:29:59.039Z,90.36
2018-04-17T03:30:59.214Z,89.61
2018-04-17T03:31:59.392Z,89.61
2018-04-17T03:32:59.573Z,89.61
2018-04-17T03:33:59.755Z,89.13
2018-04-17T03:34:59.920Z,89.22
2018-04-17T03:36:00.081Z,89.22
2018-04-17T03:37:00.265Z,89.32
2018-04-17T03:38:00.432Z,89.03
2018-04-17T03:39:00.612Z,89.41
2018-04-17T03:40:00.790Z,89.32
2018-04-17T03:41:00.966Z,89.41
2018-04-17T03:42:01.147Z,89.32
2018-04-17T03:43:01.323Z,89.61
2018-04-17T03:44:01.498Z,89.03
2018-04-17T03:45:01.673Z,89.03
2018-04-17T03:46:01.853Z,89.32
2018-04-17T03:47:02.033Z,90.17
2018-04-17T03:48:02.206Z,90.08
2018-04-17T03:49:02.387Z,90.17
2018-04-17T03:50:02.564Z,89.61
2018-04-17T03:51:02.736Z,89.22
2018-04-17T03:52:02.912Z,89.89
2018-04-17T03:53:03.100Z,90.27
2018-04-17T03:54:03.263Z,89.89
2018-04-17T03:55:03.441Z,89.98
2018-04-17T03:56:03.617Z,90.65
2018-04-17T03:57:03.799Z,90.75
2018-04-17T03:58:03.966Z,90.65
2018-04-17T03:59:04.152Z,90.65
2018-04-17T04:00:04.326Z,91.17
2018-04-17T04:01:04.502Z,91.56
2018-04-17T04:02:04.681Z,91.75
2018-04-17T04:03:04.854Z,91.65
2018-04-17T04:04:05.044Z,91.22
2018-04-17T04:05:05.205Z,90.99
2018-04-17T04:06:05.374Z,91.31
2018-04-17T04:07:05.558Z,90.70
2018-04-17T04:08:05.723Z,91.51
2018-04-17T04:09:05.902Z,91.31
2018-04-17T04:10:06.068Z,91.22
2018-04-17T04:11:06.248Z,90.65
2018-04-17T04:12:06.427Z,90.56
2018-04-17T04:13:06.598Z,90.17
2018-04-17T04:14:06.781Z,90.36
2018-04-17T04:15:06.972Z,89.22
2018-04-17T04:16:07.135Z,89.41
2018-04-17T04:17:07.315Z,90.36
2018-04-17T04:18:07.491Z,89.89
2018-04-17T04:19:07.669Z,90.17
2018-04-17T04:20:07.851Z,90.56
2018-04-17T04:21:08.007Z,90.13
2018-04-17T04:22:08.206Z,90.08
2018-04-17T04:23:08.372Z,90.80
2018-04-17T04:24:08.547Z,91.17
2018-04-17T04:25:08.725Z,91.27
2018-04-17T04:26:08.891Z,91.17
2018-04-17T04:27:09.068Z,91.08
2018-04-17T04:28:09.259Z,91.27
2018-04-17T04:29:09.432Z,91.65
2018-04-17T04:30:09.600Z,91.56
2018-04-17T04:31:09.820Z,91.37
2018-04-17T04:32:09.952Z,91.17
2018-04-17T04:33:10.124Z,91.08
2018-04-17T04:35:10.464Z,92.03
2018-04-17T04:36:10.644Z,91.75
2018-04-17T04:37:10.818Z,91.37
2018-04-17T04:38:11.008Z,91.75
2018-04-17T04:39:11.164Z,91.46
2018-04-17T04:40:11.344Z,91.37
2018-04-17T04:41:11.513Z,91.75
2018-04-17T04:42:11.687Z,90.99
2018-04-17T04:43:11.864Z,91.17
2018-04-17T04:44:12.046Z,91.65
2018-04-17T04:45:12.241Z,91.65
2018-04-17T04:46:12.401Z,91.17
2018-04-17T04:47:12.581Z,91.08
2018-04-17T04:48:12.760Z,91.08
2018-04-17T04:49:12.944Z,91.17
2018-04-17T04:50:13.112Z,90.89
2018-04-17T04:51:13.292Z,91.27
2018-04-17T04:52:13.481Z,91.75
2018-04-17T04:53:13.662Z,91.46
2018-04-17T04:54:13.831Z,91.37
2018-04-17T04:55:14.019Z,90.61
2018-04-17T04:56:14.192Z,90.80
2018-04-17T04:57:14.377Z,90.89
2018-04-17T04:58:14.539Z,90.80
2018-04-17T04:59:14.707Z,90.80
2018-04-17T05:00:14.881Z,90.61
2018-04-17T05:01:15.075Z,90.42
2018-04-17T05:02:15.242Z,90.32
2018-04-17T05:03:15.442Z,90.70
2018-04-17T05:04:15.620Z,90.75
2018-04-17T05:05:15.807Z,90.42
2018-04-17T05:06:15.984Z,90.17
2018-04-17T05:07:16.143Z,89.98
2018-04-17T05:08:16.351Z,90.03
2018-04-17T05:09:16.483Z,90.84
2018-04-17T05:10:16.656Z,90.70
2018-04-17T05:11:16.832Z,91.13
2018-04-17T05:12:17.012Z,91.03
2018-04-17T05:13:17.197Z,90.65
2018-04-17T05:14:17.374Z,90.56
2018-04-17T05:15:17.559Z,90.46
2018-04-17T05:16:17.729Z,90.08
2018-04-17T05:17:17.901Z,89.79
2018-04-17T05:18:18.093Z,89.51
2018-04-17T05:19:18.260Z,89.41
2018-04-17T05:20:18.439Z,89.41
2018-04-17T05:21:18.637Z,88.98
2018-04-17T05:22:18.817Z,88.56
2018-04-17T05:23:18.996Z,88.22
2018-04-17T05:24:19.179Z,87.84
2018-04-17T05:25:19.357Z,87.74
2018-04-17T05:26:19.532Z,88.31
2018-04-17T05:27:19.719Z,87.84
2018-04-17T05:28:19.912Z,87.93
2018-04-17T05:29:20.074Z,88.12
2018-04-17T05:30:20.252Z,87.93
2018-04-17T05:31:20.459Z,88.41
2018-04-17T05:32:20.622Z,87.65
2018-04-17T05:33:20.794Z,87.74
2018-04-17T05:34:20.981Z,88.12
2018-04-17T05:35:21.157Z,87.74
2018-04-17T05:36:21.331Z,85.78
2018-04-17T05:37:21.501Z,84.59
2018-04-17T05:38:21.680Z,83.92
2018-04-17T05:39:21.860Z,82.97
2018-04-17T05:40:22.040Z,82.11
2018-04-17T05:41:22.492Z,82.15
2018-04-17T05:42:22.399Z,80.81
2018-04-17T05:43:22.580Z,80.66
2018-04-17T05:44:22.760Z,79.43
2018-04-17T05:45:22.939Z,77.65
2018-04-17T05:46:23.120Z,76.69
2018-04-17T05:47:23.299Z,76.21
2018-04-17T05:48:23.493Z,76.50
2018-04-17T05:49:23.663Z,76.40
2018-04-17T05:50:23.843Z,76.73
2018-04-17T05:51:24.014Z,76.73
2018-04-17T05:52:24.212Z,76.12
2018-04-17T05:53:24.395Z,76.31
2018-04-17T05:54:24.578Z,76.50
2018-04-17T05:55:24.758Z,76.79
2018-04-17T05:56:24.940Z,76.25
2018-04-17T05:57:25.125Z,76.12
2018-04-17T05:58:25.315Z,76.84
2018-04-17T05:59:25.493Z,78.28
2018-04-17T06:00:25.680Z,78.94
2018-04-17T06:01:25.861Z,79.80
2018-04-17T06:02:26.281Z,80.05
2018-04-17T06:03:26.231Z,80.33
2018-04-17T06:04:26.415Z,80.53
2018-04-17T06:05:26.599Z,81.01
2018-04-17T06:06:26.784Z,80.76
2018-04-17T06:07:26.961Z,80.47
2018-04-17T06:08:27.147Z,80.62
2018-04-17T06:10:27.504Z,82.40
2018-04-17T06:11:27.690Z,82.78
2018-04-17T06:12:27.878Z,82.40
2018-04-17T06:13:28.057Z,82.53
2018-04-17T06:14:28.237Z,82.20
2018-04-17T06:15:28.423Z,82.49
2018-04-17T06:16:28.605Z,82.15
2018-04-17T06:17:28.785Z,81.67
2018-04-17T06:18:28.965Z,82.49
2018-04-17T06:19:29.149Z,82.82
2018-04-17T06:20:29.336Z,82.24
2018-04-17T06:21:29.512Z,82.53
2018-04-17T06:22:29.702Z,82.40
2018-04-17T06:23:29.884Z,83.44
2018-04-17T06:24:30.085Z,83.39
2018-04-17T06:25:30.244Z,82.91
2018-04-17T06:26:30.420Z,82.82
2018-04-17T06:27:30.601Z,82.34
2018-04-17T06:28:30.788Z,81.86
2018-04-17T06:29:30.971Z,81.96
2018-04-17T06:30:31.135Z,79.99
2018-04-17T06:31:31.317Z,77.21
2018-04-17T06:32:31.505Z,75.24
2018-04-17T06:33:31.681Z,73.84
2018-04-17T06:34:31.865Z,71.83
2018-04-17T06:35:32.046Z,71.07
2018-04-17T06:36:32.479Z,71.73
2018-04-17T06:37:32.410Z,71.83
2018-04-17T06:38:32.600Z,71.11
2018-04-17T06:39:32.775Z,70.18
2018-04-17T06:40:32.962Z,68.27
2018-04-17T06:41:33.152Z,67.82
2018-04-17T06:42:33.330Z,66.96
2018-04-17T06:43:33.511Z,67.25
2018-04-17T06:44:33.698Z,67.54
2018-04-17T06:45:33.884Z,67.79
2018-04-17T06:46:34.070Z,68.21
2018-04-17T06:47:34.309Z,67.79
2018-04-17T06:48:34.434Z,67.69
2018-04-17T06:49:34.624Z,67.54
2018-04-17T06:50:34.807Z,66.86
2018-04-17T06:51:34.985Z,65.84
2018-04-17T06:52:35.188Z,64.98
2018-04-17T06:53:35.362Z,64.34
2018-04-17T06:54:35.547Z,63.96
2018-04-17T06:55:35.735Z,63.67
2018-04-17T06:56:35.909Z,63.76
2018-04-17T06:57:36.095Z,63.03
2018-04-17T06:58:36.278Z,63.45
2018-04-17T06:59:36.471Z,64.40
2018-04-17T07:00:36.652Z,63.96
2018-04-17T07:01:36.832Z,63.38
2018-04-17T07:02:37.020Z,62.65
2018-04-17T07:03:37.210Z,62.81
2018-04-17T07:04:37.388Z,63.57
2018-04-17T07:05:37.573Z,63.54
2018-04-17T07:06:37.768Z,64.53
2018-04-17T07:07:37.957Z,63.38
2018-04-17T07:08:38.130Z,63.03
2018-04-17T07:09:38.324Z,62.84
2018-04-17T07:10:38.508Z,62.84
2018-04-17T07:11:38.727Z,62.84
2018-04-17T07:12:38.883Z,62.65
2018-04-17T07:13:39.067Z,62.16
2018-04-17T07:14:39.248Z,62.58
2018-04-17T07:15:39.436Z,63.35
2018-04-17T07:16:39.619Z,62.48
2018-04-17T07:17:39.806Z,61.94
2018-04-17T07:18:39.991Z,62.13
2018-04-17T07:19:40.187Z,61.65
2018-04-17T07:20:40.367Z,61.36
2018-04-17T07:21:40.550Z,62.29
2018-04-17T07:22:40.741Z,62.13
2018-04-17T07:23:40.949Z,61.11
2018-04-17T07:24:41.106Z,61.14
2018-04-17T07:25:41.297Z,62.87
2018-04-17T07:26:41.492Z,62.71
2018-04-17T07:27:41.673Z,62.96
2018-04-17T07:28:41.862Z,63.60
2018-04-17T07:29:42.043Z,65.20
2018-04-17T07:30:42.229Z,66.45
2018-04-17T07:31:42.664Z,66.83
2018-04-17T07:32:42.603Z,67.41
2018-04-17T07:33:42.805Z,67.57
2018-04-17T07:34:42.999Z,67.02
2018-04-17T07:35:43.159Z,66.55
2018-04-17T07:36:43.341Z,65.97
2018-04-17T07:37:43.528Z,67.41
2018-04-17T07:38:43.716Z,67.12
2018-04-17T07:39:43.905Z,66.58
2018-04-17T07:40:44.094Z,65.14
2018-04-17T07:41:44.277Z,65.05
2018-04-17T07:42:44.466Z,65.43
2018-04-17T07:43:44.653Z,66.00
2018-04-17T07:44:44.839Z,66.19
2018-04-17T07:45:45.089Z,64.50
2018-04-17T07:46:45.226Z,63.96
2018-04-17T07:47:45.500Z,62.26
2018-04-17T07:48:45.644Z,61.49
2018-04-17T07:49:45.775Z,60.53
2018-04-17T07:50:45.961Z,62.32
2018-04-17T07:51:46.103Z,62.87
2018-04-17T07:52:46.262Z,62.61
2018-04-17T07:53:46.432Z,63.76
2018-04-17T07:54:46.617Z,62.81
2018-04-17T07:55:46.894Z,61.81
2018-04-17T07:56:46.989Z,60.82
2018-04-17T07:57:47.412Z,62.42
2018-04-17T07:58:47.417Z,61.11
2018-04-17T07:59:47.535Z,60.72
2018-04-17T08:00:47.712Z,60.17
2018-04-17T08:01:47.897Z,59.92
2018-04-17T08:02:48.072Z,60.43
2018-04-17T08:03:48.257Z,61.40
2018-04-17T08:04:48.444Z,60.82
2018-04-17T08:05:48.624Z,60.37
2018-04-17T08:06:48.813Z,59.72
2018-04-17T08:07:48.976Z,59.63
2018-04-17T08:08:49.189Z,59.34
2018-04-17T08:09:49.391Z,58.57
2018-04-17T08:10:49.521Z,59.47
2018-04-17T08:11:49.714Z,60.56
2018-04-17T08:13:50.040Z,60.53
2018-04-17T08:14:50.243Z,60.56
2018-04-17T08:15:50.407Z,59.76
2018-04-17T08:16:50.573Z,59.89
2018-04-17T08:17:50.779Z,59.41
2018-04-17T08:18:50.940Z,59.34
2018-04-17T08:19:51.116Z,58.60
2018-04-17T08:20:51.272Z,58.57
2018-04-17T08:21:51.495Z,59.53
2018-04-17T08:22:51.723Z,59.44
2018-04-17T08:23:51.863Z,59.44
2018-04-17T08:24:52.062Z,58.40
2018-04-17T08:25:52.309Z,58.12
2018-04-17T08:26:53.292Z,57.28
2018-04-17T08:27:52.683Z,56.82
2018-04-17T08:28:52.865Z,56.15
2018-04-17T08:29:52.993Z,56.44
2018-04-17T08:30:53.257Z,56.77
2018-04-17T08:31:53.397Z,57.18
2018-04-17T08:32:53.563Z,56.92
2018-04-17T08:33:53.729Z,56.22
2018-04-17T08:34:53.914Z,56.25
2018-04-17T08:35:54.104Z,56.48
2018-04-17T08:36:54.372Z,57.64
2018-04-17T08:37:54.436Z,58.47
2018-04-17T08:38:54.607Z,57.83
2018-04-17T08:39:54.784Z,57.09
2018-04-17T08:40:54.961Z,58.47
2018-04-17T08:41:55.133Z,58.76
2018-04-17T08:42:55.310Z,59.15
2018-04-17T08:43:56.356Z,57.47
2018-04-17T08:44:56.292Z,56.32
2018-04-17T08:45:55.857Z,56.35
2018-04-17T08:47:56.261Z,58.95
2018-04-17T08:48:56.451Z,58.60
2018-04-17T08:49:56.571Z,57.76
2018-04-17T08:50:56.776Z,56.63
2018-04-17T08:51:57.802Z,57.06
2018-04-17T08:52:57.194Z,58.79
2018-04-17T08:53:57.397Z,57.21
2018-04-17T08:54:57.588Z,56.57
2018-04-17T08:55:57.738Z,55.51
2018-04-17T08:56:57.936Z,54.38
2018-04-17T08:57:58.097Z,53.80
2018-04-17T08:58:58.291Z,55.41
2018-04-17T08:59:58.553Z,58.67
2018-04-17T09:00:58.684Z,59.53
2018-04-17T09:01:58.970Z,59.66
2018-04-17T09:02:59.052Z,56.63
2018-04-17T09:03:59.288Z,55.51
2018-04-17T09:04:59.411Z,53.96
2018-04-17T09:05:59.634Z,53.19
2018-04-17T09:06:59.803Z,52.91
2018-04-17T09:07:59.923Z,52.13
2018-04-17T09:09:00.103Z,52.81
2018-04-17T09:10:00.309Z,53.19
2018-04-17T09:11:00.538Z,51.00
2018-04-17T09:12:00.738Z,51.32
2018-04-17T09:13:00.821Z,49.10
2018-04-17T09:14:00.993Z,47.65
2018-04-17T09:15:01.155Z,45.94
2018-04-17T09:16:01.336Z,44.51
2018-04-17T09:17:01.555Z,43.21
2018-04-17T09:18:01.713Z,43.12
2018-04-17T09:19:01.862Z,42.00
2018-04-17T09:20:02.040Z,41.86
2018-04-17T09:21:02.210Z,40.15
2018-04-17T09:22:02.405Z,39.72
2018-04-17T09:23:02.604Z,41.82
2018-04-17T09:24:02.767Z,41.82
2018-04-17T09:25:02.930Z,40.90
2018-04-17T09:26:03.122Z,40.53
2018-04-17T09:27:03.282Z,40.05
2018-04-17T09:28:03.512Z,39.51
2018-04-17T09:29:03.668Z,38.37
2018-04-17T09:30:03.839Z,37.71
2018-04-17T09:31:04.003Z,37.63
2018-04-17T09:32:04.157Z,37.73
2018-04-17T09:33:04.401Z,38.18
2018-04-17T09:34:04.551Z,39.24
2018-04-17T09:35:04.756Z,39.99
2018-04-17T09:36:04.992Z,40.77
2018-04-17T09:37:05.111Z,40.55
2018-04-17T09:38:05.268Z,42.71
2018-04-17T09:39:05.454Z,42.46
2018-04-17T09:40:05.623Z,41.63
2018-04-17T09:41:05.858Z,40.69
2018-04-17T09:42:06.050Z,39.86
2018-04-17T09:43:06.199Z,38.70
2018-04-17T09:44:06.372Z,38.43
2018-04-17T09:45:06.601Z,37.65
2018-04-17T09:46:06.738Z,37.94
2018-04-17T09:47:06.940Z,39.57
2018-04-17T09:48:07.163Z,40.34
2018-04-17T09:49:07.446Z,40.17
2018-04-17T09:50:08.321Z,39.39
2018-04-17T09:51:07.740Z,39.32
2018-04-17T09:52:08.200Z,39.57
2018-04-17T09:53:08.037Z,40.05
2018-04-17T09:54:08.368Z,39.61
2018-04-17T09:55:08.475Z,39.20
2018-04-17T09:56:08.638Z,38.45
2018-04-17T09:57:08.973Z,39.03
2018-04-17T09:58:09.080Z,40.05
2018-04-17T09:59:09.269Z,40.25
2018-04-17T10:00:09.958Z,40.52
2018-04-17T10:01:09.600Z,40.53
2018-04-17T10:02:09.856Z,41.02
2018-04-17T10:03:10.025Z,41.50
2018-04-17T10:04:10.142Z,41.67
2018-04-17T10:05:10.376Z,41.56
2018-04-17T10:06:10.506Z,41.46
2018-04-17T10:07:10.717Z,41.70
2018-04-17T10:08:10.942Z,40.92
2018-04-17T10:09:11.171Z,40.34
2018-04-17T10:10:11.365Z,39.59
2018-04-17T10:11:11.533Z,38.93
2018-04-17T10:12:11.705Z,38.45
2018-04-17T10:13:12.048Z,39.39
2018-04-17T10:14:12.146Z,40.17
2018-04-17T10:15:12.263Z,39.61
2018-04-17T10:16:12.496Z,38.54
2018-04-17T10:17:12.742Z,38.64
2018-04-17T10:18:12.818Z,39.74
2018-04-17T10:19:12.937Z,42.24
2018-04-17T10:20:13.141Z,41.87
2018-04-17T10:21:13.387Z,40.46
2018-04-17T10:22:13.454Z,39.78
2018-04-17T10:23:13.872Z,38.54
2018-04-17T10:24:13.845Z,38.66
2018-04-17T10:25:14.109Z,38.81
2018-04-17T10:26:14.256Z,40.96
2018-04-17T10:27:14.488Z,40.69
2018-04-17T10:28:14.639Z,42.00
2018-04-17T10:29:14.801Z,44.37
2018-04-17T10:30:15.051Z,45.51
2018-04-17T10:31:15.134Z,43.72
2018-04-17T10:32:15.381Z,42.41
2018-04-17T10:33:15.494Z,41.75
2018-04-17T10:34:15.688Z,41.29
2018-04-17T10:35:15.939Z,41.29
2018-04-17T10:36:16.019Z,40.34
2018-04-17T10:37:16.222Z,39.37
2018-04-17T10:38:16.592Z,39.20
2018-04-17T10:39:16.583Z,38.23
2018-04-17T10:40:16.774Z,37.48
2018-04-17T10:41:16.942Z,38.53
2018-04-17T10:42:17.163Z,39.28
2018-04-17T10:43:17.340Z,37.94
2018-04-17T10:44:17.530Z,38.50
2018-04-17T10:45:17.664Z,39.47
2018-04-17T10:46:17.875Z,39.80
2018-04-17T10:47:18.286Z,39.45
2018-04-17T10:48:18.238Z,37.42
2018-04-17T10:49:18.404Z,36.74
2018-04-17T10:50:18.651Z,36.86
2018-04-17T10:51:18.800Z,36.07
2018-04-17T10:52:19.022Z,36.72
2018-04-17T10:53:19.191Z,37.10
2018-04-17T10:54:19.425Z,37.08
2018-04-17T10:55:19.574Z,40.51
2018-04-17T10:56:19.777Z,42.52
2018-04-17T10:57:19.947Z,44.31
2018-04-17T10:58:21.341Z,46.45
2018-04-17T10:59:20.422Z,46.04
2018-04-17T11:00:20.543Z,44.98
2018-04-17T11:01:20.729Z,44.11
2018-04-17T11:02:20.975Z,43.27
2018-04-17T11:03:21.159Z,43.17
2018-04-17T11:04:21.329Z,43.65
2018-04-17T11:05:21.495Z,43.38
2018-04-17T11:06:21.651Z,42.90
2018-04-17T11:07:21.929Z,42.71
2018-04-17T11:08:22.417Z,43.00
2018-04-17T11:09:22.235Z,42.97
2018-04-17T11:10:28.942Z,43.58
2018-04-17T11:11:22.591Z,43.21
2018-04-17T11:12:22.767Z,41.69
2018-04-17T11:13:22.955Z,41.20
2018-04-17T11:14:23.436Z,41.11
2018-04-17T11:15:23.377Z,40.94
2018-04-17T11:16:23.593Z,40.94
2018-04-17T11:17:23.718Z,40.75
2018-04-17T11:18:23.924Z,40.26
2018-04-17T11:19:24.146Z,40.28
2018-04-17T11:20:24.335Z,40.19
2018-04-17T11:21:24.461Z,39.80
2018-04-17T11:22:24.663Z,40.34
2018-04-17T11:23:24.955Z,40.84
2018-04-17T11:24:25.090Z,41.13
2018-04-17T11:25:25.399Z,40.24
2018-04-17T11:26:25.488Z,41.19
2018-04-17T11:27:25.938Z,41.75
2018-04-17T11:28:25.880Z,42.15
2018-04-17T11:29:26.070Z,42.25
2018-04-17T11:30:26.454Z,41.77
2018-04-17T11:31:26.404Z,41.98
2018-04-17T11:33:26.784Z,42.46
2018-04-17T11:34:26.995Z,41.77
2018-04-17T11:35:27.114Z,42.27
2018-04-17T11:36:27.274Z,41.78
2018-04-17T11:37:27.724Z,41.13
2018-04-17T11:38:27.643Z,40.45
2018-04-17T11:39:27.827Z,41.96
2018-04-17T11:40:28.039Z,42.83
2018-04-17T11:41:28.214Z,43.46
2018-04-17T11:42:28.475Z,44.13
2018-04-17T11:43:28.588Z,44.32
2018-04-17T11:44:28.774Z,43.48
2018-04-17T11:45:29.829Z,43.10
2018-04-17T11:46:29.154Z,42.44
2018-04-17T11:47:29.793Z,41.78
2018-04-17T11:48:29.516Z,41.69
2018-04-17T11:49:29.856Z,40.17
2018-04-17T11:50:29.906Z,38.91
2018-04-17T11:51:30.154Z,38.51
2018-04-17T11:52:30.280Z,39.69
2018-04-17T11:53:30.447Z,40.07
2018-04-17T11:54:30.624Z,40.36
2018-04-17T11:55:30.798Z,39.20
2018-04-17T11:56:30.991Z,39.61
2018-04-17T11:57:31.272Z,39.09
2018-04-17T11:58:31.366Z,40.44
2018-04-17T11:59:31.549Z,40.15
2018-04-17T12:00:31.711Z,40.63
2018-04-17T12:01:31.908Z,41.78
2018-04-17T12:02:32.164Z,40.97
2018-04-17T12:03:32.296Z,41.67
2018-04-17T12:04:32.513Z,41.20
2018-04-17T12:05:32.695Z,40.84
2018-04-17T12:06:32.862Z,39.78
2018-04-17T12:07:33.361Z,39.57
2018-04-17T12:08:33.208Z,39.26
2018-04-17T12:09:33.391Z,40.78
2018-04-17T12:10:33.561Z,41.17
2018-04-17T12:11:33.794Z,40.97
2018-04-17T12:12:33.939Z,41.17
2018-04-17T12:13:34.241Z,40.97
2018-04-17T12:14:34.378Z,40.09
2018-04-17T12:15:34.530Z,40.20
2018-04-17T12:16:34.654Z,40.01
2018-04-17T12:17:34.878Z,40.12
2018-04-17T12:18:35.046Z,40.51
2018-04-17T12:19:35.234Z,40.34
2018-04-17T12:20:35.885Z,40.05
2018-04-17T12:21:35.576Z,40.17
2018-04-17T12:22:35.743Z,39.18
2018-04-17T12:23:35.890Z,39.91
2018-04-17T12:24:36.092Z,40.01
2018-04-17T12:25:36.306Z,40.97
2018-04-17T12:26:36.426Z,40.97
2018-04-17T12:27:36.628Z,40.70
2018-04-17T12:28:36.814Z,40.44
2018-04-17T12:29:37.103Z,39.95
2018-04-17T12:30:37.201Z,40.34
2018-04-17T12:31:37.354Z,40.22
2018-04-17T12:32:37.623Z,39.64
2018-04-17T12:33:37.690Z,39.54
2018-04-17T12:34:38.187Z,39.09
2018-04-17T12:35:38.081Z,38.60
2018-04-17T12:36:38.213Z,38.70
2018-04-17T12:38:38.571Z,39.09
2018-04-17T12:39:38.732Z,38.71
2018-04-17T12:40:38.913Z,38.43
2018-04-17T12:41:39.090Z,38.70
2018-04-17T12:42:39.308Z,38.71
2018-04-17T12:43:39.469Z,38.33
2018-04-17T12:44:39.630Z,37.87
2018-04-17T12:45:39.784Z,37.67
2018-04-17T12:46:39.993Z,37.30
2018-04-17T12:48:40.308Z,36.03
2018-04-17T12:49:40.498Z,35.92
2018-04-17T12:50:40.705Z,36.32
2018-04-17T12:51:40.893Z,36.13
2018-04-17T12:52:41.091Z,36.22
2018-04-17T12:53:41.227Z,36.30
2018-04-17T12:54:41.417Z,36.22
2018-04-17T12:55:41.605Z,36.13
2018-04-17T12:56:41.755Z,35.64
2018-04-17T12:57:41.947Z,35.28
2018-04-17T12:58:42.129Z,35.08
2018-04-17T12:59:42.363Z,34.70
2018-04-17T13:00:43.646Z,34.60
2018-04-17T13:01:42.704Z,34.41
2018-04-17T13:02:43.082Z,33.62